createdAt,value
2022-08-16T00:00:41.123Z,96.41
2022-08-16T00:01:40.830Z,96.30
2022-08-16T00:02:40.889Z,96.41
2022-08-16T00:03:40.925Z,96.50
2022-08-16T00:04:40.082Z,96.60
2022-08-16T00:05:48.409Z,96.70
2022-08-16T00:06:41.023Z,96.60
2022-08-16T00:07:41.475Z,96.30
2022-08-16T00:08:39.994Z,96.20
2022-08-16T00:09:43.984Z,96.30
2022-08-16T00:10:43.163Z,96.41
2022-08-16T00:11:39.945Z,96.41
2022-08-16T00:12:40.715Z,96.30
2022-08-16T00:13:41.374Z,96.30
2022-08-16T00:14:39.906Z,96.20
2022-08-16T00:15:51.548Z,96.10
2022-08-16T00:17:05.310Z,96.20
2022-08-16T00:17:56.335Z,96.41
2022-08-16T00:18:40.861Z,96.65
2022-08-16T00:19:41.142Z,96.75
2022-08-16T00:20:39.831Z,96.91
2022-08-16T00:21:39.877Z,96.75
2022-08-16T00:22:40.561Z,96.55
2022-08-16T00:23:40.371Z,96.35
2022-08-16T00:24:40.772Z,96.55
2022-08-16T00:26:35.001Z,96.85
2022-08-16T00:26:44.264Z,97.05
2022-08-16T00:27:40.501Z,97.05
2022-08-16T00:28:39.731Z,97.15
2022-08-16T00:29:42.701Z,97.15
2022-08-16T00:30:42.710Z,97.15
2022-08-16T00:31:59.820Z,97.05
2022-08-16T00:32:42.195Z,96.95
2022-08-16T00:33:39.655Z,97.05
2022-08-16T00:34:44.526Z,97.30
2022-08-16T00:35:40.627Z,97.60
2022-08-16T00:36:39.607Z,98.00
2022-08-16T00:37:56.366Z,98.10
2022-08-16T00:38:43.841Z,98.20
2022-08-16T00:39:39.582Z,98.20
2022-08-16T00:40:43.581Z,97.70
2022-08-16T00:41:40.546Z,97.00
2022-08-16T00:42:40.291Z,96.50
2022-08-16T00:43:42.480Z,96.39
2022-08-16T00:44:39.569Z,96.30
2022-08-16T00:45:58.516Z,96.39
2022-08-16T00:46:52.638Z,96.39
2022-08-16T00:47:42.647Z,96.54
2022-08-16T00:48:44.156Z,96.64
2022-08-16T00:49:44.548Z,96.59
2022-08-16T00:50:42.439Z,96.50
2022-08-16T00:51:39.433Z,96.04
2022-08-16T00:52:46.003Z,95.64
2022-08-16T00:53:40.385Z,95.53
2022-08-16T00:54:39.374Z,95.53
2022-08-16T00:55:39.345Z,95.73
2022-08-16T00:56:58.098Z,95.84
2022-08-16T00:57:58.560Z,95.94
2022-08-16T00:58:40.307Z,96.14
2022-08-16T00:59:54.735Z,96.14
2022-08-16T01:00:40.376Z,96.14
2022-08-16T01:01:39.265Z,96.34
2022-08-16T01:02:39.278Z,96.44
2022-08-16T01:03:41.699Z,96.44
2022-08-16T01:04:39.248Z,96.44
2022-08-16T01:05:39.210Z,96.24
2022-08-16T01:06:48.994Z,96.19
2022-08-16T01:07:51.311Z,95.98
2022-08-16T01:08:40.161Z,95.78
2022-08-16T01:09:42.850Z,95.58
2022-08-16T01:10:42.162Z,95.48
2022-08-16T01:11:55.050Z,95.42
2022-08-16T01:12:40.127Z,95.53
2022-08-16T01:13:39.119Z,95.73
2022-08-16T01:14:39.112Z,96.03
2022-08-16T01:15:43.124Z,96.23
2022-08-16T01:16:39.055Z,96.43
2022-08-16T01:17:39.054Z,96.73
2022-08-16T01:18:41.323Z,97.03
2022-08-16T01:19:40.797Z,97.03
2022-08-16T01:20:39.007Z,96.63
2022-08-16T01:21:39.703Z,96.17
2022-08-16T01:22:50.268Z,95.97
2022-08-16T01:23:58.628Z,96.08
2022-08-16T01:24:52.650Z,96.28
2022-08-16T01:25:39.947Z,96.58
2022-08-16T01:26:38.918Z,96.68
2022-08-16T01:27:38.951Z,96.78
2022-08-16T01:28:45.446Z,96.88
2022-08-16T01:29:57.703Z,97.38
2022-08-16T01:30:49.821Z,97.84
2022-08-16T01:31:42.809Z,98.09
2022-08-16T01:32:38.886Z,97.99
2022-08-16T01:33:38.821Z,97.89
2022-08-16T01:34:47.077Z,97.89
2022-08-16T01:35:39.793Z,97.78
2022-08-16T01:36:38.843Z,97.38
2022-08-16T01:37:38.775Z,97.08
2022-08-16T01:38:38.755Z,96.88
2022-08-16T01:39:38.811Z,96.78
2022-08-16T01:40:38.733Z,96.88
2022-08-16T01:41:42.183Z,96.98
2022-08-16T01:42:42.486Z,97.38
2022-08-16T01:43:38.696Z,97.74
2022-08-16T01:44:38.677Z,97.84
2022-08-16T01:45:39.511Z,98.04
2022-08-16T01:46:40.734Z,98.14
2022-08-16T01:47:38.637Z,98.14
2022-08-16T01:48:39.668Z,98.04
2022-08-16T01:49:45.521Z,98.04
2022-08-16T01:51:09.550Z,97.94
2022-08-16T01:51:39.579Z,97.89
2022-08-16T01:52:38.561Z,97.89
2022-08-16T01:53:40.663Z,97.89
2022-08-16T01:54:38.560Z,97.78
2022-08-16T01:55:38.571Z,97.58
2022-08-16T01:56:38.511Z,97.28
2022-08-16T01:57:38.505Z,96.98
2022-08-16T01:58:38.486Z,96.68
2022-08-16T01:59:39.472Z,96.58
2022-08-16T02:00:38.463Z,96.48
2022-08-16T02:01:38.533Z,96.37
2022-08-16T02:02:42.315Z,96.48
2022-08-16T02:03:39.964Z,96.62
2022-08-16T02:04:49.626Z,96.92
2022-08-16T02:05:39.393Z,97.13
2022-08-16T02:06:39.433Z,97.23
2022-08-16T02:07:38.374Z,97.33
2022-08-16T02:08:39.374Z,97.33
2022-08-16T02:09:41.375Z,97.33
2022-08-16T02:10:41.349Z,97.43
2022-08-16T02:11:47.839Z,97.43
2022-08-16T02:12:40.122Z,97.33
2022-08-16T02:13:41.807Z,96.87
2022-08-16T02:14:38.299Z,96.47
2022-08-16T02:15:42.640Z,96.36
2022-08-16T02:16:39.240Z,96.47
2022-08-16T02:17:38.231Z,96.56
2022-08-16T02:18:38.210Z,96.67
2022-08-16T02:19:58.881Z,96.77
2022-08-16T02:20:39.585Z,97.07
2022-08-16T02:21:38.172Z,97.98
2022-08-16T02:22:39.185Z,99.13
2022-08-16T02:23:38.142Z,99.99
2022-08-16T02:24:41.206Z,99.99
2022-08-16T02:25:52.485Z,99.99
2022-08-16T02:26:39.106Z,99.99
2022-08-16T02:27:38.094Z,99.99
2022-08-16T02:28:38.066Z,99.99
2022-08-16T02:29:42.107Z,99.99
2022-08-16T02:30:43.422Z,99.99
2022-08-16T02:32:03.347Z,99.99
2022-08-16T02:32:51.179Z,99.99
2022-08-16T02:33:44.015Z,99.99
2022-08-16T02:34:40.738Z,99.99
2022-08-16T02:35:53.765Z,99.99
2022-08-16T02:36:47.308Z,99.99
2022-08-16T02:37:51.638Z,99.99
2022-08-16T02:38:38.935Z,99.79
2022-08-16T02:39:37.945Z,99.59
2022-08-16T02:40:37.899Z,99.19
2022-08-16T02:41:39.640Z,99.08
2022-08-16T02:42:37.869Z,98.88
2022-08-16T02:43:37.862Z,98.88
2022-08-16T02:44:37.842Z,98.68
2022-08-16T02:45:37.845Z,98.68
2022-08-16T02:46:38.141Z,98.68
2022-08-16T02:48:01.007Z,98.79
2022-08-16T02:48:38.795Z,98.88
2022-08-16T02:50:01.448Z,98.99
2022-08-16T02:50:54.729Z,99.08
2022-08-16T02:51:38.788Z,99.19
2022-08-16T02:52:37.775Z,99.39
2022-08-16T02:53:37.740Z,99.49
2022-08-16T02:54:37.696Z,99.59
2022-08-16T02:55:40.998Z,99.85
2022-08-16T02:56:37.669Z,99.99
2022-08-16T02:57:37.670Z,99.99
2022-08-16T02:58:37.808Z,99.99
2022-08-16T02:59:39.575Z,99.99
2022-08-16T03:00:37.615Z,99.99
2022-08-16T03:01:37.702Z,99.85
2022-08-16T03:02:37.579Z,99.65
2022-08-16T03:04:28.718Z,99.34
2022-08-16T03:04:50.446Z,99.24
2022-08-16T03:05:38.542Z,99.14
2022-08-16T03:06:42.636Z,98.84
2022-08-16T03:07:38.514Z,98.74
2022-08-16T03:08:51.983Z,98.64
2022-08-16T03:09:41.535Z,98.64
2022-08-16T03:10:40.474Z,98.74
2022-08-16T03:11:37.478Z,98.74
2022-08-16T03:12:37.983Z,98.84
2022-08-16T03:13:40.184Z,98.94
2022-08-16T03:14:37.415Z,98.94
2022-08-16T03:15:37.446Z,99.14
2022-08-16T03:16:39.153Z,99.24
2022-08-16T03:17:53.284Z,99.14
2022-08-16T03:18:40.354Z,99.14
2022-08-16T03:19:52.771Z,99.14
2022-08-16T03:20:38.348Z,99.24
2022-08-16T03:21:37.961Z,99.39
2022-08-16T03:22:37.303Z,99.49
2022-08-16T03:23:37.318Z,99.49
2022-08-16T03:24:37.280Z,99.59
2022-08-16T03:25:44.029Z,99.59
2022-08-16T03:26:38.254Z,99.69
2022-08-16T03:27:37.231Z,99.79
2022-08-16T03:28:37.228Z,99.89
2022-08-16T03:29:42.696Z,99.99
2022-08-16T03:30:41.203Z,99.99
2022-08-16T03:31:40.569Z,99.99
2022-08-16T03:32:37.210Z,99.99
2022-08-16T03:33:37.142Z,99.99
2022-08-16T03:34:37.124Z,99.99
2022-08-16T03:35:37.115Z,99.99
2022-08-16T03:36:37.115Z,99.99
2022-08-16T03:38:01.584Z,99.99
2022-08-16T03:38:38.129Z,99.99
2022-08-16T03:39:42.853Z,99.99
2022-08-16T03:40:38.069Z,99.99
2022-08-16T03:41:50.464Z,99.99
2022-08-16T03:43:19.193Z,99.99
2022-08-16T03:43:51.526Z,99.99
2022-08-16T03:44:44.096Z,99.99
2022-08-16T03:45:37.991Z,99.99
2022-08-16T03:46:47.258Z,99.99
2022-08-16T03:47:37.950Z,99.99
2022-08-16T03:48:39.743Z,99.99
2022-08-16T03:49:39.990Z,99.99
2022-08-16T03:50:39.921Z,99.99
2022-08-16T03:51:36.912Z,99.99
2022-08-16T03:52:36.902Z,99.89
2022-08-16T03:53:38.452Z,99.79
2022-08-16T03:54:36.864Z,99.69
2022-08-16T03:55:45.468Z,99.69
2022-08-16T03:56:37.824Z,99.69
2022-08-16T03:57:36.815Z,99.79
2022-08-16T03:58:37.032Z,99.79
2022-08-16T03:59:36.784Z,99.79
2022-08-16T04:00:40.912Z,99.69
2022-08-16T04:01:36.850Z,99.79
2022-08-16T04:02:36.736Z,99.79
2022-08-16T04:03:36.727Z,99.69
2022-08-16T04:04:36.736Z,99.69
2022-08-16T04:05:36.697Z,99.69
2022-08-16T04:06:36.678Z,99.69
2022-08-16T04:07:36.669Z,99.84
2022-08-16T04:08:36.651Z,99.94
2022-08-16T04:09:39.671Z,99.99
2022-08-16T04:10:39.646Z,99.99
2022-08-16T04:11:36.898Z,99.99
2022-08-16T04:12:53.453Z,99.99
2022-08-16T04:14:00.408Z,99.99
2022-08-16T04:14:37.561Z,99.99
2022-08-16T04:15:37.616Z,99.99
2022-08-16T04:16:36.534Z,99.99
2022-08-16T04:17:36.522Z,99.99
2022-08-16T04:18:36.534Z,99.99
2022-08-16T04:19:36.520Z,99.99
2022-08-16T04:20:36.978Z,99.99
2022-08-16T04:21:46.027Z,99.99
2022-08-16T04:22:37.465Z,99.99
2022-08-16T04:23:36.435Z,99.99
2022-08-16T04:24:36.436Z,99.99
2022-08-16T04:25:36.444Z,99.99
2022-08-16T04:26:36.394Z,99.99
2022-08-16T04:27:36.378Z,99.99
2022-08-16T04:28:55.791Z,99.99
2022-08-16T04:29:44.204Z,99.99
2022-08-16T04:30:40.938Z,99.99
2022-08-16T04:31:36.326Z,99.94
2022-08-16T04:32:36.364Z,99.94
2022-08-16T04:33:36.298Z,99.99
2022-08-16T04:34:36.310Z,99.99
2022-08-16T04:35:36.321Z,99.99
2022-08-16T04:36:36.280Z,99.99
2022-08-16T04:37:42.410Z,99.99
2022-08-16T04:38:37.242Z,99.99
2022-08-16T04:39:44.960Z,99.99
2022-08-16T04:40:37.333Z,99.99
2022-08-16T04:41:37.456Z,99.99
2022-08-16T04:42:36.183Z,99.99
2022-08-16T04:43:36.172Z,99.99
2022-08-16T04:44:54.249Z,99.99
2022-08-16T04:45:37.152Z,99.99
2022-08-16T04:47:02.613Z,99.99
2022-08-16T04:47:37.125Z,99.99
2022-08-16T04:48:36.109Z,99.54
2022-08-16T04:49:44.115Z,99.24
2022-08-16T04:50:43.458Z,99.04
2022-08-16T04:51:36.317Z,98.94
2022-08-16T04:52:36.234Z,98.84
2022-08-16T04:53:36.058Z,98.84
2022-08-16T04:54:37.039Z,98.84
2022-08-16T04:55:37.694Z,98.84
2022-08-16T04:56:36.019Z,98.94
2022-08-16T04:57:37.106Z,99.04
2022-08-16T04:58:44.009Z,99.14
2022-08-16T04:59:36.991Z,99.30
2022-08-16T05:00:36.982Z,99.40
2022-08-16T05:01:58.004Z,99.50
2022-08-16T05:02:41.902Z,99.50
2022-08-16T05:03:42.067Z,99.60
2022-08-16T05:04:36.901Z,99.60
2022-08-16T05:05:36.814Z,99.70
2022-08-16T05:06:42.110Z,99.70
2022-08-16T05:07:36.853Z,99.80
2022-08-16T05:08:36.844Z,99.70
2022-08-16T05:09:38.866Z,99.70
2022-08-16T05:10:39.827Z,99.65
2022-08-16T05:11:35.795Z,99.55
2022-08-16T05:12:35.787Z,99.45
2022-08-16T05:13:40.880Z,99.45
2022-08-16T05:14:45.665Z,99.35
2022-08-16T05:15:36.785Z,99.25
2022-08-16T05:16:35.730Z,99.05
2022-08-16T05:17:35.744Z,98.85
2022-08-16T05:18:35.726Z,98.65
2022-08-16T05:19:35.997Z,98.65
2022-08-16T05:20:45.580Z,98.54
2022-08-16T05:21:38.474Z,98.54
2022-08-16T05:22:35.653Z,98.34
2022-08-16T05:23:35.621Z,98.24
2022-08-16T05:24:35.618Z,98.14
2022-08-16T05:25:41.353Z,98.14
2022-08-16T05:26:36.591Z,98.14
2022-08-16T05:27:42.750Z,98.14
2022-08-16T05:28:37.722Z,98.24
2022-08-16T05:29:57.400Z,98.24
2022-08-16T05:30:39.605Z,98.14
2022-08-16T05:31:35.527Z,98.14
2022-08-16T05:32:43.277Z,98.14
2022-08-16T05:33:36.485Z,98.24
2022-08-16T05:34:36.466Z,98.19
2022-08-16T05:35:35.455Z,98.19
2022-08-16T05:36:36.957Z,98.19
2022-08-16T05:37:39.556Z,98.19
2022-08-16T05:38:39.616Z,98.19
2022-08-16T05:39:37.655Z,97.99
2022-08-16T05:40:36.391Z,97.85
2022-08-16T05:41:44.626Z,97.85
2022-08-16T05:42:40.433Z,97.75
2022-08-16T05:43:42.972Z,97.55
2022-08-16T05:44:36.329Z,97.40
2022-08-16T05:45:36.496Z,97.20
2022-08-16T05:46:35.302Z,96.89
2022-08-16T05:47:43.301Z,96.69
2022-08-16T05:48:35.301Z,96.39
2022-08-16T05:49:39.683Z,96.30
2022-08-16T05:50:38.262Z,96.09
2022-08-16T05:51:38.955Z,96.09
2022-08-16T05:52:36.503Z,95.99
2022-08-16T05:53:38.674Z,95.79
2022-08-16T05:54:36.186Z,95.79
2022-08-16T05:55:35.337Z,95.89
2022-08-16T05:56:37.401Z,96.19
2022-08-16T05:57:35.702Z,96.30
2022-08-16T05:58:35.147Z,96.30
2022-08-16T05:59:35.127Z,96.25
2022-08-16T06:00:35.097Z,96.15
2022-08-16T06:01:38.147Z,95.95
2022-08-16T06:02:35.070Z,95.75
2022-08-16T06:03:35.060Z,95.64
2022-08-16T06:04:37.490Z,95.50
2022-08-16T06:05:41.406Z,95.50
2022-08-16T06:06:39.999Z,95.10
2022-08-16T06:07:39.312Z,94.85
2022-08-16T06:08:42.119Z,94.65
2022-08-16T06:09:44.614Z,94.55
2022-08-16T06:10:37.982Z,94.35
2022-08-16T06:11:36.662Z,94.15
2022-08-16T06:12:35.304Z,93.95
2022-08-16T06:13:34.924Z,93.74
2022-08-16T06:14:35.233Z,93.55
2022-08-16T06:15:41.606Z,93.44
2022-08-16T06:16:35.886Z,93.55
2022-08-16T06:17:42.508Z,93.55
2022-08-16T06:18:35.856Z,93.55
2022-08-16T06:19:35.727Z,93.55
2022-08-16T06:20:36.742Z,93.50
2022-08-16T06:21:36.956Z,93.50
2022-08-16T06:22:37.629Z,93.30
2022-08-16T06:23:34.808Z,93.10
2022-08-16T06:24:54.032Z,93.16
2022-08-16T06:25:39.655Z,93.26
2022-08-16T06:26:37.395Z,93.26
2022-08-16T06:27:39.566Z,93.26
2022-08-16T06:28:37.111Z,92.91
2022-08-16T06:29:37.699Z,92.41
2022-08-16T06:30:43.334Z,92.16
2022-08-16T06:31:38.484Z,91.86
2022-08-16T06:32:39.228Z,91.56
2022-08-16T06:33:41.869Z,91.06
2022-08-16T06:34:55.292Z,90.42
2022-08-16T06:35:40.323Z,90.32
2022-08-16T06:36:35.636Z,89.92
2022-08-16T06:37:37.394Z,89.82
2022-08-16T06:38:34.686Z,89.32
2022-08-16T06:39:34.648Z,89.12
2022-08-16T06:40:35.557Z,89.28
2022-08-16T06:41:39.741Z,89.37
2022-08-16T06:42:39.573Z,89.48
2022-08-16T06:43:35.499Z,89.58
2022-08-16T06:44:34.507Z,89.18
2022-08-16T06:45:34.477Z,89.07
2022-08-16T06:46:34.495Z,89.07
2022-08-16T06:47:53.810Z,89.37
2022-08-16T06:48:35.439Z,89.28
2022-08-16T06:49:38.439Z,89.14
2022-08-16T06:50:37.443Z,89.14
2022-08-16T06:51:46.468Z,88.93
2022-08-16T06:53:00.024Z,88.64
2022-08-16T06:53:35.747Z,88.64
2022-08-16T06:54:34.386Z,88.39
2022-08-16T06:55:34.822Z,88.49
2022-08-16T06:56:34.333Z,88.59
2022-08-16T06:57:34.351Z,88.25
2022-08-16T06:58:35.301Z,88.05
2022-08-16T06:59:52.735Z,87.95
2022-08-16T07:00:35.287Z,87.61
2022-08-16T07:01:44.944Z,87.11
2022-08-16T07:02:35.283Z,86.47
2022-08-16T07:03:55.792Z,86.47
2022-08-16T07:04:37.135Z,86.13
2022-08-16T07:05:41.446Z,85.83
2022-08-16T07:06:35.241Z,85.53
2022-08-16T07:07:36.228Z,84.79
2022-08-16T07:08:34.164Z,84.35
2022-08-16T07:09:37.165Z,84.05
2022-08-16T07:10:37.196Z,83.21
2022-08-16T07:11:48.313Z,83.11
2022-08-16T07:12:46.935Z,83.11
2022-08-16T07:14:35.432Z,82.42
2022-08-16T07:15:34.063Z,82.21
2022-08-16T07:16:34.051Z,82.51
2022-08-16T07:17:34.077Z,82.62
2022-08-16T07:18:34.030Z,82.57
2022-08-16T07:20:03.497Z,82.32
2022-08-16T07:20:47.874Z,82.12
2022-08-16T07:21:45.922Z,82.42
2022-08-16T07:22:37.226Z,82.81
2022-08-16T07:23:38.734Z,82.92
2022-08-16T07:24:34.956Z,82.62
2022-08-16T07:25:34.935Z,82.51
2022-08-16T07:26:34.917Z,82.28
2022-08-16T07:27:33.999Z,81.98
2022-08-16T07:28:33.899Z,81.54
2022-08-16T07:29:36.898Z,80.84
2022-08-16T07:30:45.139Z,80.94
2022-08-16T07:31:37.442Z,80.65
2022-08-16T07:32:33.860Z,80.65
2022-08-16T07:33:51.782Z,80.74
2022-08-16T07:34:37.544Z,80.94
2022-08-16T07:35:34.796Z,80.84
2022-08-16T07:36:33.781Z,80.84
2022-08-16T07:37:33.772Z,80.94
2022-08-16T07:38:34.350Z,81.24
2022-08-16T07:39:34.201Z,81.04
2022-08-16T07:40:59.667Z,81.04
2022-08-16T07:41:34.717Z,81.44
2022-08-16T07:42:35.135Z,81.54
2022-08-16T07:43:33.687Z,81.34
2022-08-16T07:44:50.393Z,81.30
2022-08-16T07:45:34.656Z,81.40
2022-08-16T07:46:39.232Z,81.10
2022-08-16T07:47:34.639Z,80.80
2022-08-16T07:48:33.617Z,80.27
2022-08-16T07:49:36.627Z,80.47
2022-08-16T07:50:56.999Z,80.87
2022-08-16T07:51:34.602Z,80.93
2022-08-16T07:52:33.568Z,80.43
2022-08-16T07:53:33.551Z,79.99
2022-08-16T07:54:39.234Z,79.60
2022-08-16T07:55:45.493Z,79.69
2022-08-16T07:56:37.137Z,79.46
2022-08-16T07:57:37.930Z,78.86
2022-08-16T07:58:36.198Z,78.63
2022-08-16T07:59:46.269Z,78.03
2022-08-16T08:00:34.506Z,77.93
2022-08-16T08:01:33.594Z,76.97
2022-08-16T08:02:33.424Z,77.77
2022-08-16T08:03:35.741Z,77.51
2022-08-16T08:04:34.396Z,77.41
2022-08-16T08:05:35.707Z,77.01
2022-08-16T08:06:33.378Z,77.31
2022-08-16T08:07:33.407Z,77.57
2022-08-16T08:08:51.590Z,77.77
2022-08-16T08:09:37.338Z,77.67
2022-08-16T08:10:37.352Z,77.87
2022-08-16T08:11:33.309Z,77.67
2022-08-16T08:12:36.245Z,77.33
2022-08-16T08:13:41.936Z,77.04
2022-08-16T08:14:34.330Z,77.04
2022-08-16T08:15:34.450Z,76.93
2022-08-16T08:16:33.356Z,77.23
2022-08-16T08:17:43.071Z,76.74
2022-08-16T08:18:34.243Z,76.74
2022-08-16T08:19:33.222Z,76.93
2022-08-16T08:20:33.842Z,77.10
2022-08-16T08:22:01.533Z,77.29
2022-08-16T08:22:34.154Z,77.20
2022-08-16T08:23:33.142Z,77.80
2022-08-16T08:24:33.157Z,77.66
2022-08-16T08:25:53.791Z,77.36
2022-08-16T08:26:34.107Z,77.06
2022-08-16T08:27:33.087Z,76.37
2022-08-16T08:28:33.067Z,75.97
2022-08-16T08:29:37.403Z,76.27
2022-08-16T08:30:50.512Z,75.57
2022-08-16T08:31:34.031Z,76.07
2022-08-16T08:32:51.111Z,75.78
2022-08-16T08:33:34.132Z,75.44
2022-08-16T08:34:32.990Z,75.74
2022-08-16T08:35:33.396Z,74.71
2022-08-16T08:36:34.185Z,74.91
2022-08-16T08:37:54.366Z,73.82
2022-08-16T08:38:45.321Z,72.83
2022-08-16T08:39:33.988Z,72.60
2022-08-16T08:40:32.990Z,72.00
2022-08-16T08:41:33.054Z,72.09
2022-08-16T08:42:32.910Z,72.39
2022-08-16T08:43:41.256Z,72.13
2022-08-16T08:44:33.877Z,72.33
2022-08-16T08:45:52.513Z,73.12
2022-08-16T08:46:35.676Z,73.22
2022-08-16T08:47:32.817Z,73.22
2022-08-16T08:48:35.701Z,73.32
2022-08-16T08:49:50.378Z,73.42
2022-08-16T08:50:36.790Z,73.28
2022-08-16T08:51:36.838Z,72.92
2022-08-16T08:52:34.775Z,71.90
2022-08-16T08:53:33.602Z,73.02
2022-08-16T08:54:32.751Z,73.19
2022-08-16T08:55:32.721Z,73.09
2022-08-16T08:56:35.004Z,73.19
2022-08-16T08:57:32.691Z,72.89
2022-08-16T08:58:34.080Z,72.49
2022-08-16T08:59:32.682Z,71.77
2022-08-16T09:00:32.640Z,71.27
2022-08-16T09:01:36.831Z,70.97
2022-08-16T09:02:33.615Z,71.37
2022-08-16T09:03:33.400Z,71.08
2022-08-16T09:04:32.650Z,69.29
2022-08-16T09:05:35.777Z,69.49
2022-08-16T09:06:32.573Z,70.38
2022-08-16T09:07:32.563Z,70.87
2022-08-16T09:08:35.195Z,70.28
2022-08-16T09:09:40.894Z,70.28
2022-08-16T09:10:39.499Z,70.28
2022-08-16T09:11:38.830Z,70.48
2022-08-16T09:12:36.028Z,70.28
2022-08-16T09:13:33.347Z,70.48
2022-08-16T09:14:32.488Z,70.15
2022-08-16T09:15:33.187Z,69.79
2022-08-16T09:17:01.403Z,69.56
2022-08-16T09:17:53.393Z,69.65
2022-08-16T09:18:35.362Z,69.95
2022-08-16T09:19:33.756Z,69.46
2022-08-16T09:20:32.365Z,68.96
2022-08-16T09:21:32.366Z,68.66
2022-08-16T09:22:32.345Z,68.63
2022-08-16T09:23:36.591Z,68.93
2022-08-16T09:24:51.487Z,69.12
2022-08-16T09:25:34.205Z,68.93
2022-08-16T09:26:45.237Z,67.84
2022-08-16T09:27:57.249Z,67.05
2022-08-16T09:29:13.541Z,67.41
2022-08-16T09:29:44.520Z,67.35
2022-08-16T09:30:44.121Z,67.11
2022-08-16T09:31:33.231Z,67.35
2022-08-16T09:32:33.211Z,67.64
2022-08-16T09:33:32.471Z,67.64
2022-08-16T09:34:33.204Z,67.64
2022-08-16T09:35:32.205Z,67.32
2022-08-16T09:36:33.312Z,67.21
2022-08-16T09:37:36.877Z,67.41
2022-08-16T09:38:32.982Z,67.11
2022-08-16T09:39:41.563Z,66.92
2022-08-16T09:40:43.764Z,67.21
2022-08-16T09:41:33.086Z,67.08
2022-08-16T09:42:32.084Z,66.19
2022-08-16T09:43:58.402Z,66.39
2022-08-16T09:45:12.828Z,65.97
2022-08-16T09:45:33.038Z,65.86
2022-08-16T09:46:45.173Z,65.67
2022-08-16T09:47:56.590Z,65.57
2022-08-16T09:48:44.057Z,64.95
2022-08-16T09:49:36.760Z,65.64
2022-08-16T09:50:38.243Z,64.25
2022-08-16T09:51:36.558Z,65.24
2022-08-16T09:52:33.104Z,65.05
2022-08-16T09:53:31.932Z,66.03
2022-08-16T09:54:32.357Z,66.42
2022-08-16T09:55:31.905Z,65.64
2022-08-16T09:56:31.979Z,65.90
2022-08-16T09:57:34.434Z,63.83
2022-08-16T09:58:41.439Z,64.12
2022-08-16T09:59:38.367Z,64.15
2022-08-16T10:00:45.423Z,63.96
2022-08-16T10:01:33.354Z,63.96
2022-08-16T10:02:31.806Z,64.06
2022-08-16T10:03:31.838Z,63.56
2022-08-16T10:04:38.899Z,63.46
2022-08-16T10:05:33.654Z,64.45
2022-08-16T10:06:33.374Z,63.14
2022-08-16T10:07:44.251Z,62.57
2022-08-16T10:08:32.730Z,61.88
2022-08-16T10:09:45.143Z,62.25
2022-08-16T10:10:35.723Z,62.35
2022-08-16T10:11:31.693Z,62.65
2022-08-16T10:12:32.673Z,63.04
2022-08-16T10:13:31.671Z,63.34
2022-08-16T10:14:33.340Z,63.93
2022-08-16T10:15:31.786Z,63.04
2022-08-16T10:16:31.615Z,62.84
2022-08-16T10:17:31.606Z,62.74
2022-08-16T10:18:56.424Z,62.84
2022-08-16T10:19:32.582Z,62.65
2022-08-16T10:20:31.599Z,61.76
2022-08-16T10:21:32.142Z,61.85
2022-08-16T10:22:31.560Z,62.05
2022-08-16T10:23:31.518Z,61.76
2022-08-16T10:24:31.511Z,61.26
2022-08-16T10:27:17.134Z,62.05
2022-08-16T10:27:18.693Z,62.15
2022-08-16T10:27:46.280Z,61.26
2022-08-16T10:28:39.946Z,60.47
2022-08-16T10:29:59.074Z,60.84
2022-08-16T10:30:39.050Z,60.54
2022-08-16T10:31:44.153Z,60.15
2022-08-16T10:32:32.490Z,58.67
2022-08-16T10:33:33.480Z,59.66
2022-08-16T10:34:32.747Z,60.25
2022-08-16T10:35:33.025Z,59.26
2022-08-16T10:36:39.252Z,59.63
2022-08-16T10:37:36.233Z,59.43
2022-08-16T10:38:33.111Z,59.83
2022-08-16T10:39:32.860Z,59.01
2022-08-16T10:40:32.335Z,58.91
2022-08-16T10:41:31.280Z,58.51
2022-08-16T10:42:31.409Z,59.60
2022-08-16T10:43:31.469Z,58.51
2022-08-16T10:44:31.240Z,56.84
2022-08-16T10:45:36.758Z,56.81
2022-08-16T10:46:39.860Z,56.42
2022-08-16T10:47:38.188Z,56.22
2022-08-16T10:48:32.211Z,57.70
2022-08-16T10:49:34.181Z,57.31
2022-08-16T10:50:34.176Z,56.94
2022-08-16T10:51:34.327Z,58.02
2022-08-16T10:53:33.244Z,55.79
2022-08-16T10:54:31.201Z,55.07
2022-08-16T10:55:40.701Z,55.16
2022-08-16T10:56:55.964Z,55.26
2022-08-16T10:57:32.903Z,55.76
2022-08-16T10:58:34.297Z,56.45
2022-08-16T10:59:32.570Z,57.11
2022-08-16T11:00:32.020Z,55.73
2022-08-16T11:01:40.181Z,55.43
2022-08-16T11:02:59.116Z,56.42
2022-08-16T11:03:42.127Z,55.14
2022-08-16T11:06:32.038Z,54.16
2022-08-16T11:07:52.459Z,55.04
2022-08-16T11:08:36.484Z,53.47
2022-08-16T11:09:43.981Z,53.66
2022-08-16T11:11:31.905Z,52.87
2022-08-16T11:12:30.873Z,53.07
2022-08-16T11:14:32.016Z,52.58
2022-08-16T11:15:30.836Z,52.19
2022-08-16T11:17:32.736Z,52.09
2022-08-16T11:19:03.815Z,52.65
2022-08-16T11:19:31.811Z,52.65
2022-08-16T11:20:41.107Z,53.05
2022-08-16T11:21:31.865Z,53.74
2022-08-16T11:22:42.083Z,53.31
2022-08-16T11:23:31.784Z,52.92
2022-08-16T11:24:40.238Z,52.33
2022-08-16T11:26:31.686Z,52.16
2022-08-16T11:27:35.621Z,52.87
2022-08-16T11:29:34.876Z,52.87
2022-08-16T11:30:38.669Z,53.07
2022-08-16T11:31:32.813Z,53.36
2022-08-16T11:32:32.479Z,53.56
2022-08-16T11:34:56.656Z,52.85
2022-08-16T11:36:31.598Z,52.06
2022-08-16T11:37:34.267Z,52.53
2022-08-16T11:38:51.225Z,52.14
2022-08-16T11:39:31.869Z,51.52
2022-08-16T11:40:32.670Z,51.74
2022-08-16T11:41:31.012Z,51.52
2022-08-16T11:42:34.404Z,50.76
2022-08-16T11:43:31.484Z,50.93
2022-08-16T11:44:45.291Z,51.42
2022-08-16T11:45:33.653Z,51.12
2022-08-16T11:46:45.100Z,51.22
2022-08-16T11:47:31.558Z,50.24
2022-08-16T11:48:30.545Z,50.54
2022-08-16T11:49:33.398Z,50.54
2022-08-16T11:50:33.676Z,51.03
2022-08-16T11:51:30.400Z,51.72
2022-08-16T11:52:30.352Z,49.06
2022-08-16T11:53:30.362Z,49.85
2022-08-16T11:54:36.109Z,50.54
2022-08-16T11:55:31.324Z,51.03
2022-08-16T11:56:51.443Z,50.54
2022-08-16T11:57:31.323Z,50.04
2022-08-16T11:58:30.338Z,50.16
2022-08-16T11:59:30.303Z,50.83
2022-08-16T12:00:33.882Z,50.54
2022-08-16T12:01:44.120Z,50.14
2022-08-16T12:02:33.003Z,49.65
2022-08-16T12:03:35.361Z,49.08
2022-08-16T12:04:31.540Z,50.54
2022-08-16T12:05:30.198Z,50.73
2022-08-16T12:06:30.929Z,49.85
2022-08-16T12:07:33.203Z,49.13
2022-08-16T12:08:30.160Z,48.55
2022-08-16T12:09:33.777Z,48.94
2022-08-16T12:10:34.150Z,49.04
2022-08-16T12:11:31.531Z,49.73
2022-08-16T12:12:30.101Z,50.24
2022-08-16T12:13:30.082Z,51.35
2022-08-16T12:14:30.074Z,51.54
2022-08-16T12:15:31.179Z,51.15
2022-08-16T12:16:31.004Z,51.28
2022-08-16T12:17:31.381Z,52.33
2022-08-16T12:18:30.075Z,51.64
2022-08-16T12:19:34.027Z,52.31
2022-08-16T12:20:30.993Z,51.52
2022-08-16T12:21:57.738Z,50.32
2022-08-16T12:22:31.297Z,50.81
2022-08-16T12:23:31.673Z,51.69
2022-08-16T12:24:29.976Z,51.91
2022-08-16T12:25:29.939Z,52.03
2022-08-16T12:26:29.913Z,51.97
2022-08-16T12:27:29.902Z,53.14
2022-08-16T12:28:52.184Z,52.82
2022-08-16T12:29:34.121Z,52.33
2022-08-16T12:30:37.768Z,51.74
2022-08-16T12:31:30.843Z,51.84
2022-08-16T12:32:39.203Z,52.26
2022-08-16T12:33:30.825Z,52.03
2022-08-16T12:34:29.814Z,51.64
2022-08-16T12:35:30.059Z,52.40
2022-08-16T12:36:30.259Z,52.11
2022-08-16T12:37:29.775Z,51.00
2022-08-16T12:38:41.031Z,49.63
2022-08-16T12:39:30.813Z,50.81
2022-08-16T12:40:30.060Z,49.73
2022-08-16T12:41:29.740Z,49.16
2022-08-16T12:42:35.431Z,49.26
2022-08-16T12:43:31.316Z,49.43
2022-08-16T12:44:31.433Z,49.53
2022-08-16T12:45:29.661Z,49.21
2022-08-16T12:46:30.897Z,49.33
2022-08-16T12:47:29.632Z,49.31
2022-08-16T12:48:34.137Z,49.31
2022-08-16T12:49:33.604Z,48.69
2022-08-16T12:50:33.603Z,48.08
2022-08-16T12:51:30.607Z,48.57
2022-08-16T12:52:33.682Z,46.31
2022-08-16T12:53:31.884Z,47.03
2022-08-16T12:54:29.526Z,46.36
2022-08-16T12:55:33.494Z,46.95
2022-08-16T12:56:29.497Z,47.54
2022-08-16T12:57:36.395Z,47.64
2022-08-16T12:58:49.637Z,48.50
2022-08-16T12:59:31.149Z,48.11
2022-08-16T13:00:33.237Z,45.83
2022-08-16T13:01:29.488Z,46.12
2022-08-16T13:02:33.617Z,45.70
2022-08-16T13:03:32.201Z,45.41